Time;durP1;ratioP1;P1;durP2;ratioP2;P2;SDS_P1;SDS_P2;PMS_P1;PMS_P2;Temp;Humidity;BMP_temperature;BMP_pressure;BME280_temperature;BME280_humidity;BME280_pressure;Samples;Min_cycle;Max_cycle;Signal;HPM_P1;HPM_P2
2022/12/27 00:01:00;;;;;;;2.05;1.15;;;3.80;99.90;;;;;;5034353;28;20401;-68
2022/12/27 00:03:26;;;;;;;4.50;0.80;;;4.00;99.90;;;;;;5034376;28;20040;-67
2022/12/27 00:05:51;;;;;;;1.52;0.60;;;3.70;99.90;;;;;;5033699;28;20562;-68
2022/12/27 00:08:17;;;;;;;4.28;0.80;;;3.90;99.90;;;;;;5016299;28;20042;-67
2022/12/27 00:10:42;;;;;;;3.42;1.10;;;3.90;99.90;;;;;;5034211;28;20468;-68
2022/12/27 00:13:08;;;;;;;1.60;0.90;;;4.00;99.90;;;;;;5034140;28;20182;-67
2022/12/27 00:15:34;;;;;;;4.82;1.20;;;3.90;99.90;;;;;;5034110;28;20038;-67
2022/12/27 00:18:00;;;;;;;5.50;1.13;;;3.90;99.90;;;;;;5033777;28;20091;-68
2022/12/27 00:20:25;;;;;;;3.42;1.33;;;4.10;99.90;;;;;;5016040;28;20084;-68
2022/12/27 00:22:51;;;;;;;1.25;0.50;;;3.70;99.90;;;;;;5033986;28;20037;-68
2022/12/27 00:25:17;;;;;;;4.20;1.42;;;3.90;99.90;;;;;;5033886;28;20042;-68
2022/12/27 00:27:42;;;;;;;1.90;0.98;;;4.20;99.90;;;;;;5033560;28;20033;-67
2022/12/27 00:30:08;;;;;;;1.83;0.50;;;3.70;99.90;;;;;;5033519;28;20037;-68
2022/12/27 00:32:34;;;;;;;8.02;1.17;;;3.80;99.90;;;;;;5033856;28;20037;-69
2022/12/27 00:34:59;;;;;;;3.85;1.45;;;3.90;99.90;;;;;;5033499;28;20037;-68
2022/12/27 00:37:25;;;;;;;4.88;1.20;;;3.90;99.90;;;;;;5015790;28;20099;-68
2022/12/27 00:39:51;;;;;;;1.50;0.80;;;4.20;99.90;;;;;;5033714;28;20120;-67
2022/12/27 00:42:16;;;;;;;1.70;0.47;;;4.10;99.90;;;;;;5033673;28;20052;-67
2022/12/27 00:44:42;;;;;;;1.98;0.88;;;4.20;99.90;;;;;;5033501;28;20037;-67
2022/12/27 00:47:08;;;;;;;5.25;1.77;;;4.10;99.90;;;;;;5033295;28;20056;-67
2022/12/27 00:49:34;;;;;;;2.20;0.95;;;4.10;99.90;;;;;;5033570;28;20037;-67
2022/12/27 00:52:00;;;;;;;0.75;0.47;;;4.10;99.90;;;;;;5033127;28;20558;-67
2022/12/27 00:54:25;;;;;;;1.15;0.73;;;4.00;99.90;;;;;;5033460;28;20041;-67
2022/12/27 00:56:51;;;;;;;4.25;0.80;;;3.90;99.90;;;;;;5033437;28;20080;-67
2022/12/27 00:59:16;;;;;;;3.90;0.95;;;3.90;99.90;;;;;;5033362;28;20084;-68
2022/12/27 01:01:42;;;;;;;6.43;0.95;;;3.90;99.90;;;;;;5015424;28;20506;-67
2022/12/27 01:04:11;;;;;;;2.20;0.95;;;3.90;99.90;;;;;;5033045;28;20045;-68
2022/12/27 01:06:37;;;;;;;1.90;0.52;;;3.80;99.90;;;;;;5032990;28;20056;-67
2022/12/27 01:09:03;;;;;;;5.43;0.95;;;3.90;99.90;;;;;;5033237;28;20033;-68
2022/12/27 01:11:29;;;;;;;5.20;0.80;;;3.70;99.90;;;;;;5033214;28;20385;-67
2022/12/27 01:13:57;;;;;;;1.58;0.98;;;3.50;99.90;;;;;;5015184;28;20041;-67
2022/12/27 01:16:24;;;;;;;3.25;1.27;;;3.80;99.90;;;;;;5033160;28;20037;-68
2022/12/27 01:18:49;;;;;;;1.25;0.70;;;3.60;99.90;;;;;;5015270;28;20124;-68
2022/12/27 01:21:17;;;;;;;3.25;1.25;;;3.50;99.90;;;;;;5033172;28;20475;-68
2022/12/27 01:23:43;;;;;;;1.70;0.93;;;3.60;99.90;;;;;;5032812;28;20038;-68
2022/12/27 01:26:17;;;;;;;3.67;0.80;;;3.60;99.90;;;;;;5032715;28;20045;-68
2022/12/27 01:28:44;;;;;;;3.97;0.85;;;3.60;99.90;;;;;;5015473;28;20439;-67
2022/12/27 01:31:13;;;;;;;1.25;0.82;;;3.60;99.90;;;;;;5015107;28;20049;-67
2022/12/27 01:33:39;;;;;;;4.18;1.65;;;3.70;99.90;;;;;;5033050;28;20416;-67
2022/12/27 01:36:24;;;;;;;0.88;0.55;;;3.60;99.90;;;;;;5032651;28;20048;-69
2022/12/27 01:38:50;;;;;;;3.40;0.75;;;3.80;99.90;;;;;;5015273;28;20073;-67
2022/12/27 01:44:37;;;;;;;7.97;1.25;;;3.90;99.90;;;;;;5032796;28;20041;-69
2022/12/27 01:47:22;;;;;;;2.03;1.02;;;3.80;99.90;;;;;;5016616;28;20505;-67
2022/12/27 01:49:59;;;;;;;4.28;0.85;;;3.70;99.90;;;;;;5037132;28;20077;-68
2022/12/27 01:52:33;;;;;;;2.03;0.77;;;3.90;99.90;;;;;;5019104;28;20037;-67
2022/12/27 01:55:06;;;;;;;1.88;0.80;;;3.80;99.90;;;;;;5036775;28;20381;-67
2022/12/27 01:57:32;;;;;;;6.28;1.13;;;3.80;99.90;;;;;;5036751;28;20410;-68
2022/12/27 01:59:57;;;;;;;2.50;1.08;;;4.00;99.90;;;;;;5036687;28;20041;-67
2022/12/27 02:02:23;;;;;;;1.00;0.52;;;3.90;99.90;;;;;;5018642;28;20049;-68
2022/12/27 02:04:49;;;;;;;1.73;1.15;;;3.50;99.90;;;;;;5036228;28;20132;-68
2022/12/27 02:07:14;;;;;;;3.05;0.98;;;3.80;99.90;;;;;;5036201;28;20038;-69
2022/12/27 02:09:52;;;;;;;1.80;1.13;;;3.70;99.90;;;;;;5036489;28;20045;-67
2022/12/27 02:12:19;;;;;;;3.72;1.05;;;3.60;99.90;;;;;;5036203;28;20037;-67
2022/12/27 02:14:48;;;;;;;0.80;0.60;;;3.90;99.90;;;;;;5036449;28;20091;-67
2022/12/27 02:17:21;;;;;;;2.60;0.82;;;3.90;99.90;;;;;;5018520;28;20049;-67
2022/12/27 02:19:58;;;;;;;3.10;0.82;;;3.70;99.90;;;;;;5036003;28;20081;-67
2022/12/27 02:25:43;;;;;;;5.20;0.98;;;3.90;99.90;;;;;;5036168;28;20055;-67
2022/12/27 02:28:34;;;;;;;1.73;1.00;;;3.90;99.90;;;;;;5036171;28;20034;-67
2022/12/27 02:31:09;;;;;;;2.55;0.93;;;4.00;99.90;;;;;;5018392;28;20481;-67
2022/12/27 02:33:40;;;;;;;2.20;0.98;;;4.00;99.90;;;;;;5036135;28;20435;-67
2022/12/27 02:36:11;;;;;;;1.65;0.82;;;4.10;99.90;;;;;;5036027;28;20087;-67
2022/12/27 02:38:41;;;;;;;2.67;1.55;;;4.00;99.90;;;;;;5035974;28;20412;-67
2022/12/27 02:55:16;;;;;;;0.90;0.60;;;4.30;99.90;;;;;;5035496;28;20045;-67
2022/12/27 02:57:50;;;;;;;1.45;0.70;;;4.40;99.90;;;;;;5035192;28;20037;-66
2022/12/27 03:03:37;;;;;;;2.92;0.98;;;4.40;99.90;;;;;;5035513;28;20132;-67
2022/12/27 03:06:38;;;;;;;2.10;0.90;;;4.40;99.90;;;;;;5034902;28;20100;-67
2022/12/27 03:18:26;;;;;;;1.08;0.73;;;4.60;99.90;;;;;;5035271;28;20061;-66
2022/12/27 03:26:27;;;;;;;1.58;0.70;;;4.50;99.90;;;;;;5035069;28;20493;-66
2022/12/27 03:34:37;;;;;;;3.03;1.38;;;4.20;99.90;;;;;;5034906;28;20057;-67
2022/12/27 03:40:12;;;;;;;3.28;0.98;;;4.30;99.90;;;;;;5035066;28;20049;-67
2022/12/27 03:48:27;;;;;;;1.10;0.73;;;4.30;99.90;;;;;;5034631;28;20053;-66
2022/12/27 03:51:03;;;;;;;8.98;0.77;;;4.20;99.90;;;;;;5034226;28;20038;-66
2022/12/27 03:53:35;;;;;;;0.80;0.73;;;4.40;99.90;;;;;;5016584;28;20079;-67
2022/12/27 03:56:02;;;;;;;1.23;0.50;;;4.20;99.90;;;;;;5034118;28;20042;-67
2022/12/27 03:58:27;;;;;;;1.33;1.05;;;4.20;99.90;;;;;;5034252;28;20045;-66
2022/12/27 04:00:53;;;;;;;2.47;0.60;;;4.30;99.90;;;;;;5034060;28;20036;-66
2022/12/27 04:03:18;;;;;;;1.42;0.70;;;4.40;99.90;;;;;;5034115;28;20236;-67
2022/12/27 04:05:44;;;;;;;7.43;0.80;;;4.10;99.90;;;;;;5033786;28;20088;-67
2022/12/27 04:35:34;;;;;;;2.42;0.65;;;4.30;99.90;;;;;;5033753;28;20485;-67
2022/12/27 04:37:59;;;;;;;0.55;0.30;;;4.50;99.90;;;;;;5033646;28;20041;-67
2022/12/27 04:57:05;;;;;;;0.77;0.60;;;4.30;99.90;;;;;;5033421;28;20045;-67
2022/12/27 05:02:17;;;;;;;0.88;0.55;;;4.50;99.90;;;;;;5015287;28;20052;-67
2022/12/27 05:04:43;;;;;;;1.08;0.82;;;4.40;99.90;;;;;;5032989;28;20111;-67
2022/12/27 05:15:27;;;;;;;5.97;0.90;;;4.20;99.90;;;;;;5015187;28;20042;-66
2022/12/27 05:17:53;;;;;;;2.50;1.42;;;5.00;99.90;;;;;;5015599;28;20064;-67
2022/12/27 05:20:18;;;;;;;7.32;0.93;;;4.10;99.90;;;;;;5033064;28;20065;-67
2022/12/27 05:25:35;;;;;;;1.95;0.73;;;4.00;99.90;;;;;;5033006;28;20046;-67
2022/12/27 05:28:05;;;;;;;3.03;0.98;;;4.00;99.90;;;;;;5033062;28;20037;-67
2022/12/27 05:30:39;;;;;;;2.17;0.80;;;3.90;99.90;;;;;;5033051;28;20042;-67
2022/12/27 05:33:05;;;;;;;3.85;1.10;;;4.10;99.90;;;;;;5015062;28;20034;-67
2022/12/27 05:35:33;;;;;;;7.13;1.08;;;4.00;99.90;;;;;;5015084;28;20060;-67
2022/12/27 05:37:58;;;;;;;4.70;0.93;;;4.10;99.90;;;;;;5032998;28;20136;-67
2022/12/27 05:40:25;;;;;;;5.38;0.98;;;4.00;99.90;;;;;;5032887;28;20124;-66
2022/12/27 05:42:51;;;;;;;2.42;0.68;;;4.10;99.90;;;;;;5032598;28;20048;-67
2022/12/27 05:45:17;;;;;;;2.58;1.00;;;4.20;99.90;;;;;;5032782;28;20037;-67
2022/12/27 05:47:43;;;;;;;2.53;0.77;;;4.10;99.90;;;;;;5032899;28;20477;-67
2022/12/27 05:50:09;;;;;;;1.20;0.73;;;4.10;99.90;;;;;;5032791;28;20163;-66
2022/12/27 05:52:35;;;;;;;2.83;1.05;;;4.10;99.90;;;;;;5032904;28;20037;-67
2022/12/27 05:55:00;;;;;;;6.32;0.80;;;4.20;99.90;;;;;;5032808;28;20052;-67
2022/12/27 05:57:26;;;;;;;5.72;0.88;;;4.20;99.90;;;;;;5032824;28;20045;-67
2022/12/27 05:59:52;;;;;;;2.13;0.45;;;4.10;99.90;;;;;;5032807;28;20378;-67
2022/12/27 06:02:17;;;;;;;2.50;0.68;;;4.20;99.90;;;;;;5032479;28;20041;-67
2022/12/27 06:04:43;;;;;;;2.38;0.63;;;4.40;99.90;;;;;;5032435;28;20058;-67
2022/12/27 06:07:10;;;;;;;1.35;0.80;;;4.30;99.90;;;;;;5032482;28;20477;-67
2022/12/27 06:09:36;;;;;;;2.03;1.30;;;4.10;99.90;;;;;;5032707;28;20034;-67
2022/12/27 06:12:02;;;;;;;6.03;0.57;;;4.10;99.90;;;;;;5032662;28;20477;-67
2022/12/27 06:14:27;;;;;;;2.95;0.73;;;3.80;99.90;;;;;;5032687;28;20088;-67
2022/12/27 06:16:53;;;;;;;1.75;0.82;;;3.90;99.90;;;;;;5032579;28;20087;-67
2022/12/27 06:19:18;;;;;;;1.40;0.90;;;3.90;99.90;;;;;;5032649;28;20107;-67
2022/12/27 06:21:44;;;;;;;3.60;1.10;;;3.90;99.90;;;;;;5014877;28;20481;-67
2022/12/27 06:24:09;;;;;;;0.70;0.55;;;3.90;99.90;;;;;;5032440;28;20092;-66
2022/12/27 06:26:35;;;;;;;1.08;0.75;;;3.70;99.90;;;;;;5032529;28;20030;-67
2022/12/27 06:29:01;;;;;;;5.70;1.20;;;3.60;99.90;;;;;;5032482;28;20029;-67
2022/12/27 06:31:27;;;;;;;1.67;1.45;;;3.60;99.90;;;;;;5032541;28;20433;-68
2022/12/27 06:33:53;;;;;;;0.88;0.70;;;3.60;99.90;;;;;;5017123;28;20037;-68
2022/12/27 06:36:22;;;;;;;0.80;0.80;;;3.50;99.90;;;;;;5018422;28;20034;-67
2022/12/27 06:38:48;;;;;;;0.40;0.40;;;3.60;99.90;;;;;;5036043;28;20175;-67
2022/12/27 06:41:16;;;;;;;2.95;0.73;;;3.40;99.90;;;;;;5017917;28;20512;-67
2022/12/27 06:43:42;;;;;;;5.80;0.70;;;3.70;99.90;;;;;;5035958;28;20045;-67
2022/12/27 06:46:13;;;;;;;0.47;0.47;;;3.40;99.90;;;;;;5035829;28;20559;-67
2022/12/27 06:48:39;;;;;;;;;;;3.50;99.90;;;;;;5036224;28;20036;-67
2022/12/27 06:51:06;;;;;;;1.15;0.50;;;3.50;99.90;;;;;;5035731;28;19917;-67
2022/12/27 06:53:32;;;;;;;0.35;0.35;;;3.40;99.90;;;;;;5034880;28;20068;-67
2022/12/27 06:56:06;;;;;;;1.00;0.68;;;3.60;99.90;;;;;;5034697;28;20041;-68
2022/12/27 06:58:31;;;;;;;1.25;0.65;;;3.30;99.90;;;;;;5016640;28;20042;-68
2022/12/27 07:00:57;;;;;;;1.10;0.80;;;3.50;99.90;;;;;;5034694;28;20168;-66
2022/12/27 07:03:23;;;;;;;0.77;0.45;;;3.50;99.90;;;;;;5034611;28;20120;-66
2022/12/27 07:05:48;;;;;;;1.50;0.88;;;3.50;99.90;;;;;;5034174;28;20057;-66
2022/12/27 07:08:14;;;;;;;2.55;0.40;;;3.30;99.90;;;;;;5034542;28;20049;-67
2022/12/27 07:10:39;;;;;;;1.85;0.90;;;3.30;99.90;;;;;;5034078;28;20042;-67
2022/12/27 07:13:05;;;;;;;1.63;0.57;;;3.10;99.90;;;;;;5034215;28;20045;-68
2022/12/27 07:15:31;;;;;;;2.17;0.90;;;;;;;;;;5034483;28;20045;-67
2022/12/27 07:17:58;;;;;;;1.33;0.80;;;3.30;99.90;;;;;;5034065;28;20041;-67
2022/12/27 07:20:23;;;;;;;1.50;0.63;;;3.30;99.90;;;;;;5034530;28;20535;-68
2022/12/27 07:22:49;;;;;;;2.78;0.80;;;3.20;99.90;;;;;;5034411;28;20073;-67
2022/12/27 07:25:15;;;;;;;2.35;1.17;;;3.10;99.90;;;;;;5034185;28;20042;-68
2022/12/27 07:27:40;;;;;;;3.47;0.55;;;3.80;99.90;;;;;;5016469;28;20045;-67
2022/12/27 07:30:07;;;;;;;5.10;0.80;;;3.30;99.90;;;;;;5016483;28;20045;-67
2022/12/27 07:32:32;;;;;;;0.70;0.55;;;3.50;99.90;;;;;;5016126;28;20076;-67
2022/12/27 07:34:58;;;;;;;1.20;0.52;;;3.40;99.90;;;;;;5016108;28;20123;-67
2022/12/27 07:37:24;;;;;;;7.28;0.68;;;3.60;99.90;;;;;;5034047;28;20048;-67
2022/12/27 07:39:49;;;;;;;1.45;1.00;;;3.50;99.90;;;;;;5034058;28;20056;-68
2022/12/27 07:42:15;;;;;;;3.08;1.23;;;3.50;99.90;;;;;;5033971;28;20473;-67
2022/12/27 07:44:40;;;;;;;1.95;0.82;;;3.60;99.90;;;;;;5033042;28;20103;-68
2022/12/27 07:47:06;;;;;;;4.28;1.20;;;3.50;99.90;;;;;;5033930;28;20041;-67
2022/12/27 07:49:31;;;;;;;0.80;0.63;;;3.60;99.90;;;;;;5015672;28;20034;-67
2022/12/27 07:51:57;;;;;;;1.55;0.70;;;3.60;99.90;;;;;;5016011;28;20045;-68
2022/12/27 07:54:23;;;;;;;9.55;1.25;;;3.60;99.90;;;;;;5033608;28;20038;-68
2022/12/27 07:56:48;;;;;;;5.13;1.50;;;3.60;99.90;;;;;;5015727;28;20052;-68
2022/12/27 07:59:14;;;;;;;4.05;0.90;;;3.50;99.90;;;;;;5033527;28;20065;-67
2022/12/27 08:04:24;;;;;;;2.53;1.20;;;3.50;99.90;;;;;;5033053;28;20136;-71
2022/12/27 08:06:50;;;;;;;5.38;1.33;;;3.40;99.90;;;;;;5015886;28;20113;-71
2022/12/27 08:09:30;;;;;;;6.28;1.20;;;3.60;99.90;;;;;;5015326;28;20041;-67
2022/12/27 08:11:56;;;;;;;4.53;0.88;;;3.50;99.90;;;;;;5015587;28;20045;-71
2022/12/27 08:14:21;;;;;;;1.98;1.23;;;3.50;99.90;;;;;;5015130;28;20048;-67
2022/12/27 08:16:47;;;;;;;10.77;1.45;;;3.50;99.90;;;;;;5033218;28;20041;-67
2022/12/27 08:19:13;;;;;;;7.97;1.17;;;3.70;99.90;;;;;;5033147;28;20076;-67
2022/12/27 08:21:38;;;;;;;4.22;1.92;;;3.50;99.90;;;;;;5033166;28;20045;-67
2022/12/27 08:24:04;;;;;;;2.47;1.52;;;3.70;99.90;;;;;;5032968;28;20473;-68
2022/12/27 08:26:30;;;;;;;1.65;0.90;;;3.60;99.90;;;;;;5015246;28;20123;-67
2022/12/27 08:28:55;;;;;;;1.85;0.93;;;3.60;99.90;;;;;;5032991;28;20064;-67
2022/12/27 08:31:21;;;;;;;4.13;1.20;;;3.70;99.90;;;;;;5032914;28;20045;-66
2022/12/27 08:33:47;;;;;;;5.47;1.15;;;3.40;99.90;;;;;;5032675;28;20041;-67
2022/12/27 08:36:12;;;;;;;2.75;0.90;;;3.70;99.90;;;;;;5032785;28;20535;-66
2022/12/27 08:38:38;;;;;;;1.63;0.82;;;3.70;99.90;;;;;;5032600;28;20034;-66
2022/12/27 08:41:04;;;;;;;1.80;1.02;;;3.70;99.90;;;;;;5032633;28;20040;-68
2022/12/27 08:43:29;;;;;;;3.83;1.88;;;3.60;99.90;;;;;;5032775;28;20041;-67
2022/12/27 08:46:03;;;;;;;2.72;1.02;;;3.70;99.90;;;;;;5032585;28;20034;-68
2022/12/27 08:48:31;;;;;;;2.10;0.93;;;3.70;99.90;;;;;;5032648;28;20041;-67
2022/12/27 08:51:01;;;;;;;8.30;1.27;;;3.60;99.90;;;;;;5014843;28;20520;-66
2022/12/27 08:53:27;;;;;;;2.25;1.20;;;3.70;99.90;;;;;;5032703;28;20396;-67
2022/12/27 08:55:55;;;;;;;2.53;1.50;;;3.90;99.90;;;;;;5032363;28;20033;-67
2022/12/27 08:58:20;;;;;;;3.88;1.50;;;3.60;99.90;;;;;;5032579;28;20045;-66
2022/12/27 09:00:46;;;;;;;2.88;0.90;;;3.80;99.90;;;;;;5032463;28;20042;-66
2022/12/27 09:03:11;;;;;;;2.25;1.15;;;3.80;99.90;;;;;;5032444;28;20037;-68
2022/12/27 09:05:37;;;;;;;5.72;1.23;;;3.60;99.90;;;;;;5010947;28;20497;-68
2022/12/27 09:08:02;;;;;;;3.03;1.35;;;3.80;99.90;;;;;;5012687;28;20113;-69
2022/12/27 09:10:28;;;;;;;2.90;1.48;;;4.00;99.90;;;;;;5011139;28;20040;-66
2022/12/27 09:12:54;;;;;;;2.95;1.13;;;4.00;99.90;;;;;;5012625;28;20038;-66
2022/12/27 09:15:19;;;;;;;4.45;1.50;;;4.40;99.90;;;;;;5012646;28;20485;-67
2022/12/27 09:17:45;;;;;;;11.93;1.77;;;;;;;;;;5012625;28;20046;-66
2022/12/27 09:20:11;;;;;;;3.63;1.40;;;4.00;99.90;;;;;;5012148;28;20057;-67
2022/12/27 09:22:37;;;;;;;1.63;0.90;;;4.10;99.90;;;;;;5012233;28;20049;-66
2022/12/27 09:25:03;;;;;;;1.73;1.02;;;4.10;99.90;;;;;;5010977;28;20050;-67
2022/12/27 09:27:29;;;;;;;4.82;1.70;;;4.10;99.90;;;;;;5012451;28;20034;-66
2022/12/27 09:29:55;;;;;;;2.22;1.55;;;4.10;99.90;;;;;;5012421;28;20042;-66
2022/12/27 09:32:20;;;;;;;4.65;1.70;;;4.10;99.90;;;;;;5012428;28;20038;-66
2022/12/27 09:34:46;;;;;;;5.57;2.38;;;4.10;99.90;;;;;;5012409;28;20038;-66
2022/12/27 09:37:11;;;;;;;4.45;2.20;;;4.10;99.90;;;;;;5012268;28;20084;-66
2022/12/27 09:39:37;;;;;;;6.28;2.15;;;4.20;99.90;;;;;;5012299;28;20417;-65
2022/12/27 09:42:42;;;;;;;5.15;1.42;;;4.10;99.90;;;;;;5011000;28;20046;-70
2022/12/27 09:45:10;;;;;;;3.67;1.50;;;4.20;99.90;;;;;;5012287;28;20038;-67
2022/12/27 09:48:06;;;;;;;3.78;1.23;;;4.20;99.90;;;;;;5012036;28;20042;-67
2022/12/27 09:50:48;;;;;;;4.57;1.95;;;4.30;99.90;;;;;;4984714;28;20046;-68
2022/12/27 09:53:23;;;;;;;5.15;1.90;;;4.30;99.90;;;;;;5010825;28;20038;-71
2022/12/27 09:55:52;;;;;;;4.65;1.48;;;4.40;99.90;;;;;;5010724;28;20060;-73
2022/12/27 09:58:35;;;;;;;4.13;1.52;;;4.40;99.90;;;;;;5011670;28;20525;-68
2022/12/27 10:01:01;;;;;;;2.40;1.20;;;4.40;99.90;;;;;;5010607;28;20137;-67
2022/12/27 10:03:29;;;;;;;2.58;1.30;;;4.50;99.90;;;;;;5011895;28;20482;-68
2022/12/27 10:06:37;;;;;;;3.13;1.30;;;4.50;99.90;;;;;;5027593;28;20144;-68
2022/12/27 10:09:24;;;;;;;5.47;1.15;;;4.50;99.90;;;;;;4992092;28;20045;-67
2022/12/27 10:12:14;;;;;;;2.92;1.50;;;4.50;99.90;;;;;;5036455;28;20126;-67
2022/12/27 10:15:04;;;;;;;2.35;1.48;;;4.50;99.90;;;;;;5036216;28;20056;-67
2022/12/27 10:17:36;;;;;;;3.90;1.55;;;;;;;;;;5036306;28;20049;-67
2022/12/27 10:20:21;;;;;;;1.35;1.10;;;4.60;99.90;;;;;;5036287;28;20473;-67
2022/12/27 10:22:53;;;;;;;4.30;1.65;;;4.70;99.90;;;;;;5036275;28;20128;-68
2022/12/27 10:25:24;;;;;;;4.03;1.83;;;4.80;99.90;;;;;;5036214;28;20037;-67
2022/12/27 10:27:59;;;;;;;3.50;1.60;;;4.90;99.90;;;;;;5036231;28;20042;-67
2022/12/27 10:30:25;;;;;;;3.60;1.48;;;;;;;;;;5035808;28;20057;-67
2022/12/27 10:32:52;;;;;;;3.40;1.50;;;4.90;99.90;;;;;;5036110;28;20473;-67
2022/12/27 10:35:20;;;;;;;3.97;1.35;;;5.00;99.90;;;;;;5035827;28;20117;-68
2022/12/27 10:37:46;;;;;;;2.75;1.50;;;5.10;99.90;;;;;;5036003;28;20488;-67
2022/12/27 10:40:39;;;;;;;5.38;1.13;;;5.20;99.90;;;;;;5035596;28;20056;-67
2022/12/27 10:43:16;;;;;;;2.42;1.50;;;5.30;99.90;;;;;;5035858;28;20416;-67
2022/12/27 10:45:41;;;;;;;3.10;1.20;;;5.30;99.90;;;;;;5017873;28;20050;-68
2022/12/27 10:48:27;;;;;;;3.50;1.05;;;5.50;99.90;;;;;;5018231;28;20064;-67
2022/12/27 10:51:00;;;;;;;4.72;1.58;;;5.60;99.90;;;;;;5035822;28;20373;-67
2022/12/27 10:53:32;;;;;;;7.15;1.65;;;5.60;99.90;;;;;;5035762;28;20049;-67
2022/12/27 10:56:33;;;;;;;5.53;1.30;;;5.70;99.90;;;;;;5035386;28;20048;-67
2022/12/27 10:59:23;;;;;;;1.80;1.10;;;5.80;99.90;;;;;;5035370;28;20038;-67
2022/12/27 11:02:15;;;;;;;6.25;1.42;;;5.80;99.90;;;;;;5001306;28;20284;-67
2022/12/27 11:04:57;;;;;;;0.88;0.50;;;5.90;99.90;;;;;;5018945;28;20140;-67
2022/12/27 11:07:29;;;;;;;4.72;1.40;;;6.00;99.90;;;;;;5035467;28;20038;-67
2022/12/27 11:10:07;;;;;;;2.05;0.88;;;5.90;99.90;;;;;;5035453;28;20045;-67
2022/12/27 11:12:32;;;;;;;4.28;1.02;;;5.90;99.90;;;;;;5017366;28;20043;-67
2022/12/27 11:15:00;;;;;;;4.22;1.35;;;6.00;99.90;;;;;;5035094;28;20500;-70
2022/12/27 11:17:46;;;;;;;13.02;2.08;;;6.10;99.90;;;;;;5017558;28;20052;-68
2022/12/27 11:20:14;;;;;;;8.23;1.60;;;6.30;99.90;;;;;;5034914;28;20041;-68
2022/12/27 11:22:46;;;;;;;3.80;1.60;;;6.40;99.90;;;;;;5034952;28;20045;-68
2022/12/27 11:25:14;;;;;;;6.93;1.02;;;6.40;99.90;;;;;;5035026;28;20403;-68
2022/12/27 11:27:45;;;;;;;5.90;1.27;;;6.40;99.90;;;;;;5035084;28;20120;-69
2022/12/27 11:30:26;;;;;;;4.35;1.42;;;6.40;99.90;;;;;;5016975;28;20104;-69
2022/12/27 11:32:52;;;;;;;7.93;1.40;;;6.20;99.90;;;;;;5035046;28;20091;-70
2022/12/27 11:35:20;;;;;;;8.00;1.17;;;6.30;99.90;;;;;;5034890;28;20037;-68
2022/12/27 11:37:47;;;;;;;6.97;1.27;;;6.30;99.90;;;;;;5034871;28;20138;-68
2022/12/27 11:40:33;;;;;;;4.43;1.10;;;;;;;;;;5034772;28;20045;-70
2022/12/27 11:43:08;;;;;;;6.80;1.70;;;;;;;;;;5017009;28;20050;-67
2022/12/27 11:45:40;;;;;;;2.22;1.33;;;6.90;99.90;;;;;;5034572;28;20125;-68
2022/12/27 11:48:40;;;;;;;3.33;1.38;;;7.00;99.90;;;;;;5034551;28;20039;-69
2022/12/27 11:51:45;;;;;;;1.90;0.90;;;6.80;99.90;;;;;;5034506;28;20440;-70
2022/12/27 11:54:11;;;;;;;9.23;1.90;;;;;;;;;;5023267;28;20049;-69
2022/12/27 11:56:51;;;;;;;3.67;1.63;;;6.90;99.90;;;;;;5016454;28;20047;-67
2022/12/27 11:59:46;;;;;;;4.38;1.80;;;7.00;99.90;;;;;;5034448;28;20432;-67
2022/12/27 12:02:36;;;;;;;4.65;1.58;;;7.10;99.90;;;;;;5034326;28;20041;-67
2022/12/27 12:05:21;;;;;;;2.58;1.10;;;7.10;99.90;;;;;;5016194;28;20052;-68
2022/12/27 12:08:10;;;;;;;2.63;0.90;;;7.20;99.90;;;;;;5034345;28;20424;-67
2022/12/27 12:10:47;;;;;;;3.92;1.55;;;7.10;99.90;;;;;;5034049;28;20430;-67
2022/12/27 12:13:47;;;;;;;4.80;1.20;;;7.00;99.90;;;;;;5034185;28;20532;-67
2022/12/27 12:16:16;;;;;;;3.17;1.30;;;6.90;99.90;;;;;;4974916;28;20448;-68
2022/12/27 12:19:00;;;;;;;7.95;1.33;;;6.80;99.90;;;;;;5033877;28;20461;-68
2022/12/27 12:21:46;;;;;;;1.90;1.10;;;6.80;99.90;;;;;;5034010;28;20033;-67
2022/12/27 12:24:38;;;;;;;9.13;2.17;;;6.70;99.90;;;;;;5033815;28;20038;-67
2022/12/27 12:27:28;;;;;;;5.90;2.28;;;6.60;99.90;;;;;;5033881;28;20037;-68
2022/12/27 12:30:10;;;;;;;5.63;1.35;;;6.50;99.90;;;;;;5033642;28;20042;-68
2022/12/27 12:33:09;;;;;;;4.82;2.58;;;6.40;99.90;;;;;;5015944;28;20397;-72
2022/12/27 12:35:50;;;;;;;2.22;1.10;;;6.30;99.90;;;;;;5033683;28;20108;-69
2022/12/27 12:38:41;;;;;;;6.25;1.55;;;6.30;99.90;;;;;;5016103;28;20041;-67
2022/12/27 12:41:22;;;;;;;2.90;0.85;;;6.30;99.90;;;;;;5033675;28;20374;-68
2022/12/27 12:43:59;;;;;;;2.55;1.20;;;6.40;99.90;;;;;;5033641;28;20041;-67
2022/12/27 12:46:46;;;;;;;3.10;0.65;;;6.40;99.90;;;;;;5033566;28;20047;-73
2022/12/27 12:49:25;;;;;;;12.18;3.15;;;6.40;99.90;;;;;;5015601;28;20396;-70
2022/12/27 12:52:23;;;;;;;6.18;1.42;;;6.40;99.90;;;;;;5015557;28;20041;-69
2022/12/27 12:55:21;;;;;;;2.08;1.05;;;6.50;99.90;;;;;;5015459;28;20412;-73
2022/12/27 12:58:14;;;;;;;4.00;1.70;;;6.50;99.90;;;;;;5033140;28;20038;-70
2022/12/27 13:00:48;;;;;;;2.55;1.25;;;6.50;99.90;;;;;;5015451;28;20053;-67
2022/12/27 13:03:32;;;;;;;4.70;2.10;;;6.50;99.90;;;;;;5015364;28;20052;-67
2022/12/27 13:06:29;;;;;;;2.90;0.88;;;6.50;99.90;;;;;;5015115;28;20103;-67
2022/12/27 13:08:58;;;;;;;9.80;1.98;;;6.40;99.90;;;;;;5033190;28;20048;-68
2022/12/27 13:11:43;;;;;;;2.55;0.93;;;6.40;99.90;;;;;;5033279;28;20117;-68
2022/12/27 13:14:27;;;;;;;1.77;1.02;;;6.40;99.90;;;;;;5033274;28;20041;-67
2022/12/27 13:16:57;;;;;;;2.03;1.30;;;6.50;99.90;;;;;;5033394;28;20041;-69
2022/12/27 13:19:36;;;;;;;1.50;0.80;;;6.50;99.90;;;;;;5033162;28;20117;-71
2022/12/27 13:22:14;;;;;;;3.97;1.52;;;6.50;99.90;;;;;;5015164;28;20048;-68
2022/12/27 13:25:07;;;;;;;5.40;1.17;;;7.00;99.90;;;;;;5015076;28;20132;-67
2022/12/27 13:27:40;;;;;;;3.47;1.30;;;6.60;99.90;;;;;;5015453;28;20045;-72
2022/12/27 13:30:37;;;;;;;4.57;0.93;;;6.60;99.90;;;;;;5032787;28;20049;-66
2022/12/27 13:33:15;;;;;;;3.50;1.75;;;6.60;99.90;;;;;;5031967;28;20049;-67
2022/12/27 13:35:58;;;;;;;1.90;1.10;;;6.50;99.90;;;;;;5032986;28;20072;-69
2022/12/27 13:38:39;;;;;;;3.55;1.50;;;6.50;99.90;;;;;;5032661;28;20091;-67
2022/12/27 13:41:27;;;;;;;1.13;0.80;;;6.50;99.90;;;;;;5032936;28;20045;-67
2022/12/27 13:44:11;;;;;;;4.13;1.40;;;6.50;99.90;;;;;;5035619;28;20041;-68
2022/12/27 13:46:51;;;;;;;4.70;1.63;;;6.50;99.90;;;;;;5036959;28;20128;-67
2022/12/27 13:49:35;;;;;;;8.97;1.83;;;6.60;99.90;;;;;;5036973;28;20060;-83
2022/12/27 13:52:27;;;;;;;4.53;0.98;;;6.50;99.90;;;;;;5019092;28;20288;-67
2022/12/27 13:55:30;;;;;;;4.43;1.38;;;6.50;99.90;;;;;;5036843;28;20046;-67
2022/12/27 13:58:08;;;;;;;3.33;1.30;;;6.40;99.90;;;;;;5036431;28;20034;-67
2022/12/27 14:00:47;;;;;;;5.38;2.03;;;6.40;99.90;;;;;;5018590;28;20130;-68
2022/12/27 14:03:24;;;;;;;2.88;1.98;;;6.40;99.90;;;;;;5035753;28;20044;-68
2022/12/27 14:05:59;;;;;;;3.92;1.65;;;6.30;99.90;;;;;;5016456;28;20056;-66
2022/12/27 14:08:56;;;;;;;8.88;2.45;;;6.30;99.90;;;;;;5034396;28;20087;-66
2022/12/27 14:11:49;;;;;;;7.53;2.47;;;6.20;99.90;;;;;;5016292;28;20041;-66
2022/12/27 14:14:17;;;;;;;6.32;2.75;;;6.20;99.90;;;;;;5016017;28;20048;-67
2022/12/27 14:17:07;;;;;;;7.47;2.28;;;6.20;99.90;;;;;;5034001;28;20416;-66
2022/12/27 14:19:48;;;;;;;5.90;3.20;;;6.10;99.90;;;;;;5034271;28;20458;-66
2022/12/27 14:22:37;;;;;;;4.38;2.03;;;6.10;99.90;;;;;;5034139;28;20038;-67
2022/12/27 14:25:52;;;;;;;8.38;3.17;;;6.10;99.90;;;;;;5034050;28;20046;-66
2022/12/27 14:28:47;;;;;;;5.15;2.95;;;6.00;99.90;;;;;;5033877;28;20403;-66
2022/12/27 14:31:33;;;;;;;8.95;3.70;;;6.10;99.90;;;;;;4998149;28;20049;-66
2022/12/27 14:34:02;;;;;;;4.95;3.40;;;6.10;99.90;;;;;;5033747;28;20546;-66
2022/12/27 14:36:41;;;;;;;8.75;3.90;;;6.10;99.90;;;;;;5015928;28;20049;-66
2022/12/27 14:39:24;;;;;;;13.88;4.28;;;6.10;99.90;;;;;;5033953;28;20095;-66
2022/12/27 14:42:15;;;;;;;7.00;3.55;;;6.00;99.90;;;;;;5033808;28;20519;-66
2022/12/27 14:45:00;;;;;;;5.90;3.83;;;6.00;99.90;;;;;;5015697;28;20140;-66
2022/12/27 14:47:29;;;;;;;9.50;4.18;;;6.00;99.90;;;;;;5033792;28;20116;-67
2022/12/27 14:50:06;;;;;;;6.97;3.67;;;6.00;99.90;;;;;;5033671;28;20091;-67
2022/12/27 14:52:44;;;;;;;7.60;4.40;;;6.00;99.90;;;;;;5033345;28;20111;-67
2022/12/27 14:55:41;;;;;;;10.20;5.28;;;6.00;99.90;;;;;;5015197;28;20052;-69
2022/12/27 14:58:27;;;;;;;5.30;3.75;;;6.00;99.90;;;;;;4984322;28;20060;-68
2022/12/27 15:01:17;;;;;;;6.93;3.75;;;5.90;99.90;;;;;;5033600;28;20057;-68
2022/12/27 15:03:53;;;;;;;11.50;4.45;;;5.90;99.90;;;;;;5033544;28;20049;-69
2022/12/27 15:06:38;;;;;;;6.20;4.72;;;5.80;99.90;;;;;;4997181;28;1070425;-67
2022/12/27 15:09:07;;;;;;;9.40;4.10;;;5.80;99.90;;;;;;5034546;28;20397;-68
2022/12/27 15:11:44;;;;;;;8.10;4.60;;;5.70;99.90;;;;;;5034538;28;20037;-68
2022/12/27 15:14:10;;;;;;;7.63;4.85;;;5.70;99.90;;;;;;5034130;28;20052;-68
2022/12/27 15:17:01;;;;;;;9.75;4.22;;;5.60;99.90;;;;;;5034525;28;20046;-68
2022/12/27 15:20:07;;;;;;;10.32;4.50;;;5.70;99.90;;;;;;5034400;28;20477;-68
2022/12/27 15:22:48;;;;;;;6.32;4.60;;;5.70;99.90;;;;;;5016284;28;20124;-68
2022/12/27 15:25:38;;;;;;;8.38;5.38;;;5.60;99.90;;;;;;5033747;28;20053;-68